Time;durP1;ratioP1;P1;durP2;ratioP2;P2;SDS_P1;SDS_P2;PMS_P1;PMS_P2;Temp;Humidity;BMP_temperature;BMP_pressure;BME280_temperature;BME280_humidity;BME280_pressure;Samples;Min_cycle;Max_cycle;Signal;HPM_P1;HPM_P2
2021/01/29 00:01:35;;;;;;;29.63;6.43;;;;;;;;;;5134673;27;20025;-82
2021/01/29 00:04:01;;;;;;;23.63;5.07;;;;;;;;;;5134555;27;20458;-82
2021/01/29 00:06:26;;;;;;;22.70;5.30;;;;;;;;;;5132699;27;20075;-82
2021/01/29 00:08:51;;;;;;;25.13;5.32;;;;;;;;;;5132308;27;20027;-82
2021/01/29 00:11:16;;;;;;;32.43;5.53;;;;;;;;;;5132960;27;20023;-82
2021/01/29 00:13:41;;;;;;;27.53;4.97;;;;;;;;;;5134342;27;20459;-82
2021/01/29 00:16:07;;;;;;;23.77;4.47;;;;;;;;;;5132714;27;20068;-82
2021/01/29 00:18:32;;;;;;;26.87;5.10;;;;;;;;;;5133034;27;20022;-81
2021/01/29 00:20:57;;;;;;;32.72;4.45;;;;;;;;;;5132895;27;20526;-81
2021/01/29 00:23:22;;;;;;;25.88;4.68;;;;;;;;;;5132882;27;20118;-82
2021/01/29 00:25:52;;;;;;;28.13;5.30;;;;;;;;;;5134208;27;20013;-82
2021/01/29 00:28:18;;;;;;;23.65;4.32;;;;;;;;;;5132871;27;20514;-82
2021/01/29 00:30:44;;;;;;;28.87;5.30;;;;;;;;;;5124555;27;20076;-82
2021/01/29 00:33:10;;;;;;;24.77;4.15;;;;;;;;;;5127964;27;20023;-82
2021/01/29 00:35:36;;;;;;;19.60;4.25;;;;;;;;;;5132701;27;20480;-81
2021/01/29 00:38:01;;;;;;;17.73;3.67;;;;;;;;;;5132829;27;20015;-82
2021/01/29 00:40:26;;;;;;;24.65;4.10;;;;;;;;;;5132544;27;20118;-82
2021/01/29 00:42:52;;;;;;;25.85;3.53;;;;;;;;;;5132757;27;20093;-82
2021/01/29 00:45:18;;;;;;;27.02;3.83;;;;;;;;;;5133995;27;20018;-82
2021/01/29 00:47:43;;;;;;;21.52;3.80;;;;;;;;;;5132394;27;20011;-83
2021/01/29 00:50:09;;;;;;;21.55;3.17;;;;;;;;;;5132616;27;20015;-82
2021/01/29 00:52:34;;;;;;;24.48;3.45;;;;;;;;;;5132361;27;20011;-82
2021/01/29 00:54:59;;;;;;;13.95;3.00;;;;;;;;;;5132643;27;20334;-83
2021/01/29 00:57:25;;;;;;;15.23;3.22;;;;;;;;;;5132438;28;20015;-82
2021/01/29 00:59:50;;;;;;;15.20;3.60;;;;;;;;;;5131986;28;20377;-83
2021/01/29 01:02:15;;;;;;;11.25;2.80;;;;;;;;;;5132464;28;20079;-83
2021/01/29 01:04:40;;;;;;;15.25;3.78;;;;;;;;;;5133565;27;20076;-82
2021/01/29 01:07:06;;;;;;;18.42;3.72;;;;;;;;;;5133672;28;20063;-82
2021/01/29 01:09:31;;;;;;;20.17;3.95;;;;;;;;;;5132023;28;20034;-82
2021/01/29 01:11:56;;;;;;;19.73;3.78;;;;;;;;;;5132330;28;20042;-82
2021/01/29 01:14:21;;;;;;;14.68;3.45;;;;;;;;;;5132161;28;20048;-82
2021/01/29 01:16:47;;;;;;;17.85;3.85;;;;;;;;;;5132264;28;20039;-82
2021/01/29 01:19:12;;;;;;;14.02;4.00;;;;;;;;;;5132095;28;20462;-82
2021/01/29 01:21:37;;;;;;;16.95;3.78;;;;;;;;;;5134945;27;20018;-82
2021/01/29 01:24:03;;;;;;;10.82;3.97;;;;;;;;;;5136438;27;20043;-82
2021/01/29 01:26:28;;;;;;;15.80;4.20;;;;;;;;;;5136220;27;20015;-82
2021/01/29 01:28:53;;;;;;;16.90;3.88;;;;;;;;;;5135503;27;20062;-82
2021/01/29 01:31:19;;;;;;;15.50;4.00;;;;;;;;;;5135988;27;20445;-82
2021/01/29 01:33:44;;;;;;;16.85;3.75;;;;;;;;;;5137156;27;20023;-82
2021/01/29 01:36:09;;;;;;;11.93;4.10;;;;;;;;;;5136062;27;20377;-82
2021/01/29 01:38:34;;;;;;;11.48;4.00;;;;;;;;;;5137144;27;20027;-82
2021/01/29 01:41:00;;;;;;;14.73;3.70;;;;;;;;;;5136681;27;20404;-82
2021/01/29 01:43:25;;;;;;;12.27;3.72;;;;;;;;;;5135991;27;20466;-82
2021/01/29 01:45:53;;;;;;;15.10;3.80;;;;;;;;;;5137084;27;20011;-81
2021/01/29 01:48:26;;;;;;;14.07;3.53;;;;;;;;;;5135636;27;20327;-82
2021/01/29 01:50:51;;;;;;;;;;;;;;;;;;5136164;27;20151;-82
2021/01/29 01:53:42;;;;;;;11.50;3.68;;;;;;;;;;5135742;27;19993;-82
2021/01/29 01:56:15;;;;;;;9.90;3.27;;;;;;;;;;5131373;27;20129;-82
2021/01/29 01:58:45;;;;;;;8.43;3.22;;;;;;;;;;5135477;27;20095;-82
2021/01/29 02:01:10;;;;;;;15.32;3.40;;;;;;;;;;5135486;27;20015;-82
2021/01/29 02:03:35;;;;;;;8.17;3.23;;;;;;;;;;5136694;27;20416;-82
2021/01/29 02:06:02;;;;;;;11.32;3.10;;;;;;;;;;5135498;27;20015;-82
2021/01/29 02:08:29;;;;;;;9.18;2.95;;;;;;;;;;5135634;27;20075;-82
2021/01/29 02:10:55;;;;;;;9.60;2.97;;;;;;;;;;5136793;27;20029;-82
2021/01/29 02:13:20;;;;;;;14.13;3.13;;;;;;;;;;5135350;27;20098;-82
2021/01/29 02:15:49;;;;;;;7.95;2.63;;;;;;;;;;5135496;27;20511;-82
2021/01/29 02:18:32;;;;;;;9.55;2.83;;;;;;;;;;5135138;27;20041;-82
2021/01/29 02:21:16;;;;;;;8.30;2.75;;;;;;;;;;5135114;27;20007;-82
2021/01/29 02:23:41;;;;;;;9.27;2.60;;;;;;;;;;5134873;27;20024;-82
2021/01/29 02:26:21;;;;;;;5.38;2.47;;;;;;;;;;5135240;27;20018;-82
2021/01/29 02:29:05;;;;;;;11.30;2.58;;;;;;;;;;5135020;27;20025;-82
2021/01/29 02:31:46;;;;;;;7.95;2.17;;;;;;;;;;5135121;27;20027;-82
2021/01/29 02:34:40;;;;;;;8.75;2.25;;;;;;;;;;5134887;27;20019;-82
2021/01/29 02:37:24;;;;;;;7.10;2.47;;;;;;;;;;5116988;27;20470;-82
2021/01/29 02:40:05;;;;;;;10.10;2.15;;;;;;;;;;5134937;27;20026;-82
2021/01/29 02:42:44;;;;;;;9.68;2.58;;;;;;;;;;5134711;27;20023;-82
2021/01/29 02:45:17;;;;;;;3.70;2.03;;;;;;;;;;5135040;27;20366;-82
2021/01/29 02:47:50;;;;;;;8.43;2.25;;;;;;;;;;5134457;27;20038;-82
2021/01/29 02:50:15;;;;;;;;;;;;;;;;;;5136738;27;20023;-82
2021/01/29 02:52:40;;;;;;;7.80;2.45;;;;;;;;;;5134213;27;19934;-82
2021/01/29 02:55:08;;;;;;;7.32;2.70;;;;;;;;;;5134243;27;20270;-82
2021/01/29 02:57:37;;;;;;;8.35;2.17;;;;;;;;;;5126604;27;20019;-82
2021/01/29 03:00:14;;;;;;;10.25;2.40;;;;;;;;;;5134233;27;20038;-82
2021/01/29 03:02:55;;;;;;;4.40;2.42;;;;;;;;;;5134550;27;20019;-82
2021/01/29 03:05:22;;;;;;;3.97;1.77;;;;;;;;;;5134311;27;20024;-82
2021/01/29 03:07:50;;;;;;;3.33;1.70;;;;;;;;;;5134241;27;20011;-82
2021/01/29 03:10:30;;;;;;;7.43;1.80;;;;;;;;;;5134233;27;20051;-82
2021/01/29 03:12:58;;;;;;;4.28;1.20;;;;;;;;;;5135420;27;20488;-82
2021/01/29 03:15:27;;;;;;;5.27;1.30;;;;;;;;;;5134350;27;20019;-82
2021/01/29 03:18:00;;;;;;;8.20;1.15;;;;;;;;;;5133871;27;20478;-82
2021/01/29 03:20:25;;;;;;;1.65;0.80;;;;;;;;;;5120709;27;20019;-82
2021/01/29 03:22:52;;;;;;;2.47;0.90;;;;;;;;;;5134060;27;20096;-82
2021/01/29 03:25:24;;;;;;;5.95;0.95;;;;;;;;;;5135250;27;20030;-82
2021/01/29 03:27:52;;;;;;;2.63;1.00;;;;;;;;;;5134169;27;20075;-82
2021/01/29 03:30:23;;;;;;;2.03;0.90;;;;;;;;;;5133649;27;20019;-82
2021/01/29 03:32:49;;;;;;;4.95;0.85;;;;;;;;;;5134004;27;20029;-82
2021/01/29 03:35:19;;;;;;;0.43;0.43;;;;;;;;;;5133713;27;20106;-82
2021/01/29 03:37:47;;;;;;;2.17;0.63;;;;;;;;;;5133634;27;20027;-82
2021/01/29 03:40:12;;;;;;;1.38;0.55;;;;;;;;;;5133610;27;20015;-82
2021/01/29 03:42:46;;;;;;;2.47;0.70;;;;;;;;;;5135062;27;20067;-82
2021/01/29 03:45:30;;;;;;;2.73;0.57;;;;;;;;;;5132974;27;20019;-82
2021/01/29 03:47:58;;;;;;;5.28;0.70;;;;;;;;;;5135013;27;20011;-82
2021/01/29 03:50:29;;;;;;;3.75;0.88;;;;;;;;;;5133358;27;20023;-82
2021/01/29 03:53:01;;;;;;;1.83;0.70;;;;;;;;;;5133562;27;20099;-82
2021/01/29 03:55:26;;;;;;;2.37;0.60;;;;;;;;;;5133341;27;20108;-82
2021/01/29 03:57:51;;;;;;;1.00;0.53;;;;;;;;;;5133407;27;20044;-82
2021/01/29 04:00:31;;;;;;;3.63;0.80;;;;;;;;;;5133363;27;20047;-82
2021/01/29 04:02:59;;;;;;;2.73;0.70;;;;;;;;;;5132994;27;20075;-82
2021/01/29 04:05:32;;;;;;;2.47;0.40;;;;;;;;;;5133141;27;20064;-82
2021/01/29 04:08:02;;;;;;;2.67;0.88;;;;;;;;;;5133134;27;20026;-82
2021/01/29 04:10:28;;;;;;;1.37;0.60;;;;;;;;;;5132861;27;20035;-82
2021/01/29 04:12:58;;;;;;;4.63;1.00;;;;;;;;;;5132859;27;20023;-82
2021/01/29 04:15:23;;;;;;;4.23;0.80;;;;;;;;;;5133102;27;20382;-82
2021/01/29 04:17:57;;;;;;;2.77;0.90;;;;;;;;;;5132960;27;20026;-81
2021/01/29 04:20:29;;;;;;;4.53;0.90;;;;;;;;;;5133040;27;20045;-82
2021/01/29 04:22:55;;;;;;;1.38;0.80;;;;;;;;;;5132923;27;20019;-82
2021/01/29 04:25:47;;;;;;;3.50;0.90;;;;;;;;;;5133232;27;20130;-82
2021/01/29 04:28:15;;;;;;;0.93;0.67;;;;;;;;;;5131108;27;20019;-82
2021/01/29 04:30:42;;;;;;;1.77;0.80;;;;;;;;;;5133922;27;20019;-82
2021/01/29 04:33:09;;;;;;;2.10;0.80;;;;;;;;;;5132620;27;20026;-81
2021/01/29 04:35:36;;;;;;;2.60;1.30;;;;;;;;;;5134150;27;20051;-82
2021/01/29 04:38:04;;;;;;;1.37;0.90;;;;;;;;;;5133931;27;20088;-82
2021/01/29 04:40:36;;;;;;;1.10;0.70;;;;;;;;;;5132869;27;20118;-82
2021/01/29 04:43:20;;;;;;;0.97;0.70;;;;;;;;;;5132703;27;20150;-82
2021/01/29 04:45:45;;;;;;;3.03;0.90;;;;;;;;;;5134030;27;20008;-82
2021/01/29 04:48:15;;;;;;;1.53;1.00;;;;;;;;;;5146507;27;20103;-82
2021/01/29 04:50:40;;;;;;;1.13;0.80;;;;;;;;;;5118783;27;20022;-82
2021/01/29 04:53:25;;;;;;;1.20;0.80;;;;;;;;;;5132633;27;20015;-82
2021/01/29 04:55:53;;;;;;;2.13;1.00;;;;;;;;;;5119466;28;20458;-82
2021/01/29 04:58:24;;;;;;;1.90;1.03;;;;;;;;;;5132485;28;20030;-82
2021/01/29 05:01:10;;;;;;;2.13;1.15;;;;;;;;;;5132314;28;20022;-82
2021/01/29 05:03:41;;;;;;;2.10;1.40;;;;;;;;;;5132260;28;20065;-82
2021/01/29 05:06:16;;;;;;;2.67;1.40;;;;;;;;;;5132034;28;20446;-82
2021/01/29 05:09:01;;;;;;;3.80;1.70;;;;;;;;;;5132410;28;20023;-82
2021/01/29 05:11:45;;;;;;;4.13;1.33;;;;;;;;;;5132289;28;20530;-82
2021/01/29 05:14:20;;;;;;;2.47;1.63;;;;;;;;;;5132268;28;20024;-82
2021/01/29 05:17:00;;;;;;;4.60;1.40;;;;;;;;;;5132802;27;20016;-82
2021/01/29 05:19:28;;;;;;;2.43;1.73;;;;;;;;;;5147086;27;20382;-81
2021/01/29 05:22:09;;;;;;;2.63;2.37;;;;;;;;;;5132222;28;20039;-82
2021/01/29 05:24:39;;;;;;;5.13;3.10;;;;;;;;;;5131980;28;20386;-82
2021/01/29 05:27:23;;;;;;;3.97;3.00;;;;;;;;;;5131931;28;20030;-81
2021/01/29 05:29:48;;;;;;;8.93;3.20;;;;;;;;;;5131811;28;20024;-82
2021/01/29 05:32:26;;;;;;;6.33;3.10;;;;;;;;;;5131486;28;20023;-80
2021/01/29 05:34:54;;;;;;;8.70;3.70;;;;;;;;;;5131944;28;20019;-81
2021/01/29 05:37:32;;;;;;;7.50;3.83;;;;;;;;;;5131979;28;20049;-82
2021/01/29 05:40:17;;;;;;;13.57;3.43;;;;;;;;;;5132826;28;20026;-82
2021/01/29 05:42:45;;;;;;;11.90;3.27;;;;;;;;;;5132112;28;20015;-82
2021/01/29 05:45:31;;;;;;;9.10;3.10;;;;;;;;;;5131842;28;20015;-82
2021/01/29 05:48:04;;;;;;;4.77;2.70;;;;;;;;;;5131089;28;20031;-82
2021/01/29 05:50:29;;;;;;;11.93;3.03;;;;;;;;;;5131521;28;20015;-82
2021/01/29 05:52:55;;;;;;;11.03;2.70;;;;;;;;;;5131937;28;20351;-82
2021/01/29 05:55:26;;;;;;;8.47;2.80;;;;;;;;;;5131221;28;20019;-82
2021/01/29 05:58:10;;;;;;;13.95;3.00;;;;;;;;;;5131874;28;20031;-82
2021/01/29 06:00:55;;;;;;;13.60;3.00;;;;;;;;;;5131512;28;20023;-82
2021/01/29 06:03:23;;;;;;;9.13;2.50;;;;;;;;;;5131920;28;20027;-82
2021/01/29 06:06:05;;;;;;;9.93;2.30;;;;;;;;;;5131280;28;20051;-82
2021/01/29 06:08:39;;;;;;;12.47;2.50;;;;;;;;;;5134589;27;20020;-83
2021/01/29 06:11:04;;;;;;;7.93;1.90;;;;;;;;;;5135116;27;20023;-83
2021/01/29 06:13:29;;;;;;;10.17;2.27;;;;;;;;;;5135444;27;20060;-83
2021/01/29 06:15:58;;;;;;;13.80;3.03;;;;;;;;;;5134903;27;20091;-82
2021/01/29 06:18:26;;;;;;;11.70;2.77;;;;;;;;;;5135156;27;20068;-83
2021/01/29 06:21:11;;;;;;;20.33;3.97;;;;;;;;;;5135194;27;20369;-83
2021/01/29 06:24:02;;;;;;;17.27;3.43;;;;;;;;;;5093762;27;20031;-83
2021/01/29 06:26:55;;;;;;;22.27;3.60;;;;;;;;;;5136414;27;20015;-82
2021/01/29 06:29:25;;;;;;;26.40;3.63;;;;;;;;;;5134778;27;20368;-83
2021/01/29 06:32:06;;;;;;;29.00;3.20;;;;;;;;;;5134931;27;20047;-83
2021/01/29 06:34:50;;;;;;;33.43;5.07;;;;;;;;;;5134989;27;20586;-81
2021/01/29 06:37:27;;;;;;;28.73;4.77;;;;;;;;;;5136284;27;20493;-82
2021/01/29 06:39:55;;;;;;;32.23;4.57;;;;;;;;;;5149868;27;20031;-82
2021/01/29 06:42:41;;;;;;;29.83;4.00;;;;;;;;;;5134890;27;20023;-82
2021/01/29 06:45:12;;;;;;;33.93;5.30;;;;;;;;;;5134582;27;20394;-82
2021/01/29 06:47:51;;;;;;;37.72;4.45;;;;;;;;;;5134804;27;20015;-82
2021/01/29 06:50:34;;;;;;;24.50;3.33;;;;;;;;;;5134365;27;20019;-82
2021/01/29 06:53:00;;;;;;;28.97;3.53;;;;;;;;;;5134646;27;20023;-82
2021/01/29 06:55:25;;;;;;;22.97;4.50;;;;;;;;;;5135909;27;20016;-82
2021/01/29 06:58:16;;;;;;;38.37;4.93;;;;;;;;;;5134693;27;20482;-82
2021/01/29 07:01:00;;;;;;;34.13;5.47;;;;;;;;;;5102980;27;20428;-82
2021/01/29 07:03:44;;;;;;;27.37;3.73;;;;;;;;;;5134394;27;20023;-82
2021/01/29 07:06:19;;;;;;;29.60;4.13;;;;;;;;;;5146156;27;20424;-82
2021/01/29 07:08:44;;;;;;;42.60;5.27;;;;;;;;;;5148209;27;20023;-82
2021/01/29 07:11:22;;;;;;;24.53;3.70;;;;;;;;;;5131001;27;20023;-82
2021/01/29 07:13:50;;;;;;;38.77;5.70;;;;;;;;;;5135649;27;20019;-82
2021/01/29 07:16:15;;;;;;;41.93;5.67;;;;;;;;;;5133747;27;20030;-82
2021/01/29 07:18:53;;;;;;;27.07;3.77;;;;;;;;;;5133133;27;20023;-82
2021/01/29 07:21:37;;;;;;;37.30;5.43;;;;;;;;;;5133819;27;20018;-81
2021/01/29 07:24:11;;;;;;;28.77;4.83;;;;;;;;;;5133998;27;20054;-82
2021/01/29 07:26:36;;;;;;;38.57;5.07;;;;;;;;;;5133822;27;20026;-81
2021/01/29 07:29:05;;;;;;;40.03;5.47;;;;;;;;;;5133915;27;20461;-82
2021/01/29 07:31:30;;;;;;;32.10;4.23;;;;;;;;;;5133751;27;20122;-81
2021/01/29 07:34:01;;;;;;;45.77;6.73;;;;;;;;;;5133781;27;20076;-82
2021/01/29 07:36:32;;;;;;;37.00;6.13;;;;;;;;;;5133521;27;20141;-82
2021/01/29 07:39:18;;;;;;;40.90;5.40;;;;;;;;;;5135026;27;20019;-82
2021/01/29 07:41:43;;;;;;;38.40;4.90;;;;;;;;;;5132843;27;20023;-82
2021/01/29 07:44:33;;;;;;;32.60;4.50;;;;;;;;;;5133561;27;20402;-81
2021/01/29 07:47:14;;;;;;;34.77;6.13;;;;;;;;;;5112852;28;20507;-82
2021/01/29 07:49:42;;;;;;;38.80;5.70;;;;;;;;;;5125066;27;20038;-81
2021/01/29 07:52:26;;;;;;;32.13;4.33;;;;;;;;;;5132996;27;20019;-81
2021/01/29 07:55:08;;;;;;;32.73;4.27;;;;;;;;;;5133123;27;20141;-82
2021/01/29 07:57:46;;;;;;;27.90;4.07;;;;;;;;;;5120094;27;20019;-82
2021/01/29 08:00:17;;;;;;;33.73;3.97;;;;;;;;;;5133070;27;20406;-81
2021/01/29 08:03:01;;;;;;;43.33;6.10;;;;;;;;;;5134564;27;20042;-81
2021/01/29 08:05:33;;;;;;;43.83;4.87;;;;;;;;;;5132907;27;20465;-82
2021/01/29 08:08:00;;;;;;;38.47;5.88;;;;;;;;;;5132777;27;20019;-80
2021/01/29 08:10:28;;;;;;;45.67;5.63;;;;;;;;;;5132640;27;20056;-81
2021/01/29 08:13:01;;;;;;;33.00;4.20;;;;;;;;;;5134181;27;20022;-81
2021/01/29 08:15:31;;;;;;;33.60;4.60;;;;;;;;;;5133393;27;20377;-81
2021/01/29 08:18:07;;;;;;;43.13;5.67;;;;;;;;;;5133032;27;20538;-81
2021/01/29 08:20:51;;;;;;;39.53;4.93;;;;;;;;;;5130910;27;20027;-81
2021/01/29 08:23:29;;;;;;;31.37;3.60;;;;;;;;;;5132734;27;20027;-81
2021/01/29 08:26:12;;;;;;;42.10;6.13;;;;;;;;;;5133681;27;20396;-81
2021/01/29 08:28:41;;;;;;;43.63;5.67;;;;;;;;;;5119352;27;20023;-81
2021/01/29 08:31:15;;;;;;;45.47;4.33;;;;;;;;;;5132566;27;20031;-81
2021/01/29 08:33:59;;;;;;;38.80;4.07;;;;;;;;;;5132704;27;20350;-81
2021/01/29 08:36:54;;;;;;;34.93;4.13;;;;;;;;;;5132359;27;20023;-81
2021/01/29 08:39:24;;;;;;;39.40;4.60;;;;;;;;;;5061058;27;20037;-81
2021/01/29 08:42:02;;;;;;;47.57;5.23;;;;;;;;;;5132478;27;20019;-81
2021/01/29 08:44:46;;;;;;;44.33;5.67;;;;;;;;;;5132622;27;20023;-82
2021/01/29 08:47:22;;;;;;;44.50;5.13;;;;;;;;;;5132600;27;20019;-81
2021/01/29 08:49:53;;;;;;;42.03;6.23;;;;;;;;;;5132328;27;20415;-81
2021/01/29 08:52:25;;;;;;;50.50;6.77;;;;;;;;;;5132231;27;20096;-81
2021/01/29 08:54:58;;;;;;;31.27;3.90;;;;;;;;;;5132079;27;20022;-81
2021/01/29 08:57:28;;;;;;;40.17;4.37;;;;;;;;;;5128219;27;20023;-82
2021/01/29 08:59:56;;;;;;;46.17;5.67;;;;;;;;;;5128470;27;20043;-81
2021/01/29 09:02:40;;;;;;;48.10;6.37;;;;;;;;;;5120032;28;20094;-81
2021/01/29 09:05:08;;;;;;;38.00;4.00;;;;;;;;;;5116589;28;20409;-80
2021/01/29 09:07:34;;;;;;;51.67;6.37;;;;;;;;;;5127421;28;20094;-81
2021/01/29 09:10:25;;;;;;;28.03;3.67;;;;;;;;;;5132268;27;20031;-81
2021/01/29 09:13:01;;;;;;;41.87;6.70;;;;;;;;;;5082861;28;20028;-81
2021/01/29 09:15:32;;;;;;;55.37;6.40;;;;;;;;;;5132157;28;20031;-81
2021/01/29 09:18:00;;;;;;;49.53;5.73;;;;;;;;;;5133483;27;20510;-80
2021/01/29 09:20:33;;;;;;;51.97;7.00;;;;;;;;;;5131571;28;20034;-81
2021/01/29 09:23:04;;;;;;;42.15;7.63;;;;;;;;;;5132035;28;20050;-81
2021/01/29 09:25:34;;;;;;;37.97;4.80;;;;;;;;;;5132011;28;20019;-81
2021/01/29 09:28:08;;;;;;;47.37;7.20;;;;;;;;;;5132010;28;20366;-81
2021/01/29 09:30:47;;;;;;;43.37;4.67;;;;;;;;;;5131154;28;20019;-81
2021/01/29 09:33:26;;;;;;;35.83;4.67;;;;;;;;;;5133136;28;20098;-82
2021/01/29 09:35:54;;;;;;;44.87;7.13;;;;;;;;;;5129473;28;20064;-81
2021/01/29 09:38:22;;;;;;;39.53;5.53;;;;;;;;;;5131925;28;20027;-81
2021/01/29 09:40:49;;;;;;;48.10;5.50;;;;;;;;;;5132044;28;20019;-81
2021/01/29 09:43:22;;;;;;;46.93;6.33;;;;;;;;;;5135214;27;20019;-82
2021/01/29 09:45:51;;;;;;;49.47;7.55;;;;;;;;;;5135880;27;20007;-81
2021/01/29 09:48:20;;;;;;;46.57;5.87;;;;;;;;;;5135565;27;20488;-81
2021/01/29 09:50:46;;;;;;;49.70;6.80;;;;;;;;;;5135751;27;20480;-81
2021/01/29 09:53:21;;;;;;;44.13;6.03;;;;;;;;;;5135635;27;20076;-81
2021/01/29 09:55:51;;;;;;;50.83;7.53;;;;;;;;;;5132274;27;20384;-81
2021/01/29 09:58:21;;;;;;;45.33;5.60;;;;;;;;;;5137119;27;20038;-81
2021/01/29 10:01:05;;;;;;;39.57;4.87;;;;;;;;;;5135396;27;20446;-81
2021/01/29 10:03:34;;;;;;;47.50;7.50;;;;;;;;;;5135240;27;20354;-81
2021/01/29 10:06:04;;;;;;;44.90;5.83;;;;;;;;;;5135046;27;20019;-82
2021/01/29 10:08:35;;;;;;;37.53;5.90;;;;;;;;;;5118532;27;20056;-81
2021/01/29 10:11:12;;;;;;;41.00;6.13;;;;;;;;;;5136119;27;20110;-81
2021/01/29 10:13:49;;;;;;;51.40;6.57;;;;;;;;;;5134272;27;20024;-80
2021/01/29 10:16:14;;;;;;;40.13;4.47;;;;;;;;;;5135230;27;20022;-82
2021/01/29 10:18:40;;;;;;;36.47;5.97;;;;;;;;;;5136463;27;20457;-81
2021/01/29 10:21:16;;;;;;;40.40;7.38;;;;;;;;;;5135286;27;20106;-81
2021/01/29 10:23:44;;;;;;;42.10;5.33;;;;;;;;;;5135273;27;20115;-81
2021/01/29 10:26:19;;;;;;;47.63;5.13;;;;;;;;;;5134725;27;20030;-81
2021/01/29 10:28:54;;;;;;;38.53;6.27;;;;;;;;;;5135151;27;20023;-81
2021/01/29 10:31:23;;;;;;;51.45;5.85;;;;;;;;;;5120844;27;20114;-82
2021/01/29 10:33:50;;;;;;;38.77;5.40;;;;;;;;;;5135258;27;20514;-81
2021/01/29 10:36:27;;;;;;;37.38;4.20;;;;;;;;;;5136007;27;20028;-82
2021/01/29 10:38:56;;;;;;;34.87;4.23;;;;;;;;;;5127160;27;20026;-81
2021/01/29 10:41:40;;;;;;;39.13;4.63;;;;;;;;;;5134795;27;20019;-81
2021/01/29 10:44:11;;;;;;;31.55;4.65;;;;;;;;;;5127793;27;20060;-81
2021/01/29 10:46:47;;;;;;;37.47;5.20;;;;;;;;;;5129381;27;20042;-81
2021/01/29 10:49:17;;;;;;;34.33;5.43;;;;;;;;;;5134761;27;20418;-81
2021/01/29 10:51:47;;;;;;;36.00;5.35;;;;;;;;;;5134515;27;20088;-81
2021/01/29 10:54:13;;;;;;;38.17;5.83;;;;;;;;;;5134584;27;20027;-81
2021/01/29 10:56:47;;;;;;;37.00;4.97;;;;;;;;;;5134453;27;20015;-80
2021/01/29 10:59:15;;;;;;;33.28;5.60;;;;;;;;;;5132482;27;20083;-80
2021/01/29 11:02:01;;;;;;;40.13;5.17;;;;;;;;;;5133841;27;20022;-81
2021/01/29 11:04:32;;;;;;;36.38;5.75;;;;;;;;;;5127513;27;20023;-81
2021/01/29 11:07:01;;;;;;;53.00;5.65;;;;;;;;;;5133451;27;20027;-81
2021/01/29 11:09:31;;;;;;;37.83;5.07;;;;;;;;;;5135162;27;20561;-81
2021/01/29 11:12:01;;;;;;;33.35;6.03;;;;;;;;;;5134353;27;20382;-81
2021/01/29 11:14:32;;;;;;;26.17;3.30;;;;;;;;;;5134147;27;20041;-81
2021/01/29 11:17:02;;;;;;;33.20;5.20;;;;;;;;;;5133991;27;20022;-81
2021/01/29 11:19:40;;;;;;;44.97;4.50;;;;;;;;;;5133700;27;20069;-82
2021/01/29 11:22:08;;;;;;;45.05;4.57;;;;;;;;;;5134220;27;20029;-81
2021/01/29 11:24:44;;;;;;;43.73;4.93;;;;;;;;;;5133873;27;20019;-81
2021/01/29 11:27:12;;;;;;;36.37;5.20;;;;;;;;;;5133617;27;20322;-81
2021/01/29 11:29:40;;;;;;;30.27;4.82;;;;;;;;;;5133755;27;20027;-81
2021/01/29 11:32:08;;;;;;;42.20;6.07;;;;;;;;;;5133968;27;20075;-81
2021/01/29 11:34:34;;;;;;;41.83;4.53;;;;;;;;;;5133907;27;20027;-81
2021/01/29 11:37:02;;;;;;;35.33;5.03;;;;;;;;;;5133675;27;20054;-81
2021/01/29 11:39:34;;;;;;;38.60;5.60;;;;;;;;;;5135140;27;20106;-81
2021/01/29 11:42:05;;;;;;;31.55;5.20;;;;;;;;;;5133456;27;20507;-81
2021/01/29 11:45:02;;;;;;;28.33;2.90;;;;;;;;;;5135217;27;20466;-81
2021/01/29 11:47:35;;;;;;;28.37;3.83;;;;;;;;;;5117143;27;20038;-81
2021/01/29 11:50:14;;;;;;;31.70;3.00;;;;;;;;;;5133492;27;20114;-82
2021/01/29 11:52:41;;;;;;;16.67;2.00;;;;;;;;;;5134914;27;20029;-82
2021/01/29 11:55:20;;;;;;;19.80;2.97;;;;;;;;;;5132982;27;20030;-82
2021/01/29 11:57:45;;;;;;;28.60;2.70;;;;;;;;;;5124231;27;20023;-82
2021/01/29 12:00:20;;;;;;;29.37;3.00;;;;;;;;;;5132810;27;20030;-82
2021/01/29 12:03:10;;;;;;;32.27;3.83;;;;;;;;;;5132929;27;20019;-82
2021/01/29 12:05:48;;;;;;;24.20;2.93;;;;;;;;;;5132454;27;20181;-82
2021/01/29 12:08:31;;;;;;;26.40;3.63;;;;;;;;;;5132834;27;20369;-82
2021/01/29 12:11:15;;;;;;;27.77;3.30;;;;;;;;;;5132654;27;20031;-82
2021/01/29 12:13:52;;;;;;;32.13;3.10;;;;;;;;;;5132989;27;20019;-82
2021/01/29 12:16:22;;;;;;;39.17;4.93;;;;;;;;;;5133038;27;20072;-82
2021/01/29 12:18:50;;;;;;;28.23;2.87;;;;;;;;;;5134181;27;20019;-82
2021/01/29 12:21:26;;;;;;;36.30;3.10;;;;;;;;;;5132705;27;20020;-81
2021/01/29 12:23:56;;;;;;;32.83;3.10;;;;;;;;;;5132959;27;20015;-82
2021/01/29 12:26:24;;;;;;;36.85;4.47;;;;;;;;;;5132392;27;20023;-82
2021/01/29 12:28:49;;;;;;;36.77;3.67;;;;;;;;;;5131200;27;20015;-81
2021/01/29 12:31:14;;;;;;;26.47;3.70;;;;;;;;;;5132548;27;20525;-82
2021/01/29 12:33:46;;;;;;;43.57;5.53;;;;;;;;;;5132703;27;20013;-82
2021/01/29 12:36:13;;;;;;;30.73;3.70;;;;;;;;;;5132266;27;20374;-82
2021/01/29 12:38:48;;;;;;;34.23;4.17;;;;;;;;;;5132275;27;20423;-82
2021/01/29 12:41:17;;;;;;;30.60;4.10;;;;;;;;;;5133296;27;20022;-82
2021/01/29 12:43:48;;;;;;;27.03;2.77;;;;;;;;;;5132241;27;20011;-83
2021/01/29 12:46:20;;;;;;;17.50;1.80;;;;;;;;;;5133803;27;20370;-82
2021/01/29 12:48:46;;;;;;;11.83;1.50;;;;;;;;;;5132510;27;20018;-82
2021/01/29 12:51:15;;;;;;;17.70;2.23;;;;;;;;;;5132413;27;20031;-83
2021/01/29 12:53:40;;;;;;;6.20;1.23;;;;;;;;;;5128874;27;20027;-83
2021/01/29 12:56:18;;;;;;;9.07;1.33;;;;;;;;;;5132344;27;20019;-83
2021/01/29 12:58:46;;;;;;;18.10;1.30;;;;;;;;;;5132160;27;20019;-83
2021/01/29 13:01:14;;;;;;;13.47;1.83;;;;;;;;;;5132128;27;20061;-83
2021/01/29 13:03:47;;;;;;;21.17;2.83;;;;;;;;;;5132159;28;20106;-83
2021/01/29 13:06:25;;;;;;;30.33;3.77;;;;;;;;;;5131722;28;20088;-83
2021/01/29 13:09:09;;;;;;;17.27;2.77;;;;;;;;;;5132309;28;20133;-83
2021/01/29 13:11:34;;;;;;;36.27;4.03;;;;;;;;;;5132125;27;20024;-83
2021/01/29 13:14:06;;;;;;;32.97;3.93;;;;;;;;;;5146165;27;20114;-83
2021/01/29 13:16:57;;;;;;;37.05;4.82;;;;;;;;;;5131209;27;20019;-82
2021/01/29 13:19:25;;;;;;;43.93;4.30;;;;;;;;;;5111364;27;20377;-82
2021/01/29 13:21:54;;;;;;;34.30;3.63;;;;;;;;;;5135952;27;20019;-82
2021/01/29 13:24:26;;;;;;;28.70;3.30;;;;;;;;;;5136111;27;20423;-83
2021/01/29 13:26:51;;;;;;;40.13;4.78;;;;;;;;;;5135917;27;20077;-82
2021/01/29 13:29:18;;;;;;;36.00;5.13;;;;;;;;;;5116615;28;20446;-83
2021/01/29 13:31:44;;;;;;;35.43;5.93;;;;;;;;;;5124670;27;20030;-83
2021/01/29 13:34:12;;;;;;;40.57;5.47;;;;;;;;;;5135121;27;20031;-83
2021/01/29 13:36:38;;;;;;;40.10;5.20;;;;;;;;;;5135823;27;20030;-82
2021/01/29 13:39:23;;;;;;;34.00;4.30;;;;;;;;;;5135751;27;20023;-82
2021/01/29 13:41:50;;;;;;;37.40;4.97;;;;;;;;;;5135610;27;20026;-82
2021/01/29 13:44:20;;;;;;;37.73;3.87;;;;;;;;;;5135919;27;20412;-82
2021/01/29 13:46:49;;;;;;;37.53;3.90;;;;;;;;;;5135531;27;20026;-83
2021/01/29 13:49:14;;;;;;;35.70;4.03;;;;;;;;;;5136906;27;20031;-83
2021/01/29 13:51:39;;;;;;;34.53;3.87;;;;;;;;;;5135434;27;20030;-82
2021/01/29 13:54:09;;;;;;;40.20;4.27;;;;;;;;;;5135533;27;20079;-82
2021/01/29 13:56:47;;;;;;;34.67;3.93;;;;;;;;;;5137253;27;20362;-83
2021/01/29 13:59:18;;;;;;;33.43;4.87;;;;;;;;;;5134139;27;20027;-82
2021/01/29 14:01:48;;;;;;;30.43;2.97;;;;;;;;;;5136814;27;20099;-82
2021/01/29 14:04:39;;;;;;;32.20;4.53;;;;;;;;;;5135259;27;20411;-81
2021/01/29 14:07:04;;;;;;;19.53;2.20;;;;;;;;;;5131228;27;20423;-82
2021/01/29 14:09:30;;;;;;;6.32;1.45;;;;;;;;;;5135809;27;20152;-83
2021/01/29 14:11:55;;;;;;;8.20;1.47;;;;;;;;;;5134272;28;20027;-83
2021/01/29 14:14:34;;;;;;;4.60;0.97;;;;;;;;;;5134222;28;20110;-83
2021/01/29 14:17:17;;;;;;;9.10;1.53;;;;;;;;;;5134200;28;20035;-83
2021/01/29 14:19:49;;;;;;;7.23;1.20;;;;;;;;;;5134109;28;20015;-82
2021/01/29 14:22:17;;;;;;;6.57;1.20;;;;;;;;;;5133734;28;20068;-83
2021/01/29 14:25:02;;;;;;;7.07;1.27;;;;;;;;;;5133839;28;20019;-83
2021/01/29 14:27:36;;;;;;;9.43;1.70;;;;;;;;;;5135237;27;20444;-83
2021/01/29 14:30:01;;;;;;;10.40;1.77;;;;;;;;;;5126705;28;20015;-83
2021/01/29 14:32:41;;;;;;;16.17;2.33;;;;;;;;;;5131289;28;20030;-83
2021/01/29 14:35:11;;;;;;;10.27;1.90;;;;;;;;;;5133666;28;20026;-83
2021/01/29 14:37:40;;;;;;;12.83;2.20;;;;;;;;;;5133839;28;20031;-82
2021/01/29 14:40:20;;;;;;;10.90;2.20;;;;;;;;;;5133500;28;20022;-82
2021/01/29 14:43:06;;;;;;;13.93;2.37;;;;;;;;;;5135082;28;20015;-82
2021/01/29 14:45:50;;;;;;;14.37;2.60;;;;;;;;;;5134744;27;20019;-82
2021/01/29 14:48:33;;;;;;;16.43;2.80;;;;;;;;;;5131744;28;20016;-82
2021/01/29 14:51:09;;;;;;;20.20;3.70;;;;;;;;;;5144142;27;20038;-82
2021/01/29 14:53:40;;;;;;;20.60;3.53;;;;;;;;;;5132721;28;20026;-82
2021/01/29 14:56:17;;;;;;;19.87;3.50;;;;;;;;;;5129992;28;20489;-82
2021/01/29 14:58:47;;;;;;;19.87;3.50;;;;;;;;;;5134107;27;20068;-83
2021/01/29 15:01:15;;;;;;;15.10;3.07;;;;;;;;;;5132805;28;20073;-82
2021/01/29 15:03:50;;;;;;;21.90;3.40;;;;;;;;;;5132841;28;20015;-82